Time;durP1;ratioP1;P1;durP2;ratioP2;P2;SDS_P1;SDS_P2;PMS_P1;PMS_P2;Temp;Humidity;BMP_temperature;BMP_pressure;BME280_temperature;BME280_humidity;BME280_pressure;Samples;Min_cycle;Max_cycle;Signal;HPM_P1;HPM_P2
2021/12/13 00:01:22;;;;;;;;;79.00;67.00;;;;;4.56;47.42;99547.63;6187097;28;97409;-67
2021/12/13 00:04:29;;;;;;;;;79.00;66.00;;;;;4.54;47.51;99546.13;6179579;28;97629;-67
2021/12/13 00:07:37;;;;;;;;;78.25;64.75;;;;;4.47;47.36;99543.28;6176597;28;97850;-67
2021/12/13 00:10:47;;;;;;;;;77.80;65.00;;;;;4.48;46.64;99552.13;6152960;28;98909;-67
2021/12/13 00:13:54;;;;;;;;;76.00;62.40;;;;;4.39;46.43;99531.78;6180748;28;97574;-66
2021/12/13 00:17:02;;;;;;;;;77.00;61.00;;;;;4.27;46.01;99533.94;6202396;28;97412;-67
2021/12/13 00:20:12;;;;;;;;;74.00;59.60;;;;;4.16;46.28;99531.56;6168991;28;99779;-67
2021/12/13 00:23:21;;;;;;;;;78.00;62.20;;;;;4.12;46.37;99535.56;6168217;28;97515;-67
2021/12/13 00:26:33;;;;;;;;;77.20;63.40;;;;;4.05;46.65;99540.75;6171199;28;97969;-67
2021/12/13 00:29:45;;;;;;;;;87.40;68.80;;;;;4.09;47.06;99534.09;6171987;28;97765;-68
2021/12/13 00:33:02;;;;;;;;;84.33;69.33;;;;;4.09;47.00;99539.41;6183800;28;98053;-69
2021/12/13 00:36:13;;;;;;;;;78.50;66.50;;;;;4.11;47.27;99545.41;6170279;28;97570;-68
2021/12/13 00:39:21;;;;;;;;;80.00;69.20;;;;;4.11;47.20;99550.75;6165396;28;99473;-68
2021/12/13 00:42:29;;;;;;;;;79.00;66.50;;;;;4.06;46.83;99560.25;6162585;28;97921;-68
2021/12/13 00:45:39;;;;;;;;;78.00;63.00;;;;;3.93;46.69;99553.56;6185585;28;97382;-68
2021/12/13 00:48:47;;;;;;;;;78.80;63.80;;;;;3.78;46.26;99549.84;6189770;28;98567;-68
2021/12/13 00:51:56;;;;;;;;;76.00;60.40;;;;;3.67;46.32;99551.97;6185767;28;96933;-67
2021/12/13 00:55:00;;;;;;;;;76.60;59.00;;;;;3.56;46.43;99547.78;6156091;28;97061;-68
2021/12/13 00:58:10;;;;;;;;;77.00;64.40;;;;;3.49;46.52;99544.91;6168495;28;97296;-67
2021/12/13 01:01:15;;;;;;;;;75.60;61.80;;;;;3.43;46.15;99540.22;6181667;28;97459;-68
2021/12/13 01:04:19;;;;;;;;;78.80;62.00;;;;;3.38;46.36;99537.19;6171069;28;99621;-68
2021/12/13 01:08:04;;;;;;;;;77.50;62.50;;;;;3.35;46.63;99537.53;6178607;28;97378;-69
2021/12/13 01:11:20;;;;;;;;;78.00;62.20;;;;;3.34;47.06;99545.69;6187401;28;97373;-69
2021/12/13 01:14:45;;;;;;;;;79.25;66.00;;;;;3.36;47.25;99551.69;6181514;28;97450;-68
2021/12/13 01:17:58;;;;;;;;;81.00;69.00;;;;;3.40;47.36;99551.22;6182163;28;97593;-67
2021/12/13 01:21:14;;;;;;;;;82.60;69.00;;;;;3.44;47.01;99551.72;6167933;28;97790;-67
2021/12/13 01:24:40;;;;;;;;;83.20;71.00;;;;;3.51;47.81;99549.25;6164072;28;99611;-68
2021/12/13 01:27:49;;;;;;;;;83.60;68.60;;;;;3.56;47.33;99553.13;6195440;28;97413;-68
2021/12/13 01:30:57;;;;;;;;;84.60;72.20;;;;;3.55;47.10;99543.44;6178734;28;98030;-68
2021/12/13 01:34:06;;;;;;;;;87.00;69.40;;;;;3.61;47.36;99547.31;6169796;28;98115;-68
2021/12/13 01:37:14;;;;;;;;;89.50;74.25;;;;;3.46;47.07;99518.59;6167832;28;99619;-67
2021/12/13 01:40:19;;;;;;;;;80.80;67.80;;;;;3.64;47.48;99555.81;6171845;28;97455;-67
2021/12/13 01:43:26;;;;;;;;;82.75;72.00;;;;;3.67;47.44;99558.13;6187427;28;98070;-68
2021/12/13 01:46:37;;;;;;;;;80.00;68.80;;;;;3.60;47.17;99532.28;6165759;28;97435;-68
2021/12/13 01:49:45;;;;;;;;;80.50;67.75;;;;;3.68;47.15;99550.97;6151531;28;97629;-68
2021/12/13 01:52:51;;;;;;;;;81.00;66.60;;;;;3.72;47.38;99546.97;6189472;28;97113;-68
2021/12/13 01:55:59;;;;;;;;;77.20;62.80;;;;;3.70;47.36;99541.84;6187374;28;97841;-68
2021/12/13 01:59:15;;;;;;;;;78.00;62.00;;;;;3.69;46.97;99550.81;6160640;28;96622;-68
2021/12/13 02:02:26;;;;;;;;;78.80;63.20;;;;;3.64;47.01;99547.81;6145762;28;97797;-69
2021/12/13 02:05:33;;;;;;;;;78.20;64.00;;;;;3.64;47.25;99541.63;6169479;28;96806;-68
2021/12/13 02:08:37;;;;;;;;;72.60;62.00;;;;;3.47;47.45;99530.91;6184424;28;96883;-68
2021/12/13 02:11:43;;;;;;;;;75.40;59.60;;;;;3.58;47.53;99535.09;6184718;28;97378;-68
2021/12/13 02:16:55;;;;;;;;;75.50;58.75;;;;;3.59;47.80;99538.63;6182389;28;98098;-67
2021/12/13 02:18:15;;;;;;;;;77.00;62.50;;;;;3.60;47.95;99540.28;6181293;28;97136;-68
2021/12/13 02:21:27;;;;;;;;;74.75;57.75;;;;;3.62;48.16;99520.47;6183574;28;97399;-68
2021/12/13 02:24:32;;;;;;;;;75.33;62.33;;;;;3.58;47.72;99497.78;6187900;28;97379;-66
2021/12/13 02:27:38;;;;;;;;;74.00;58.20;;;;;3.54;47.84;99501.78;6158268;28;97441;-66
2021/12/13 02:30:44;;;;;;;;;75.40;61.00;;;;;3.56;47.37;99491.81;6144250;28;98423;-67
2021/12/13 02:33:51;;;;;;;;;76.00;59.00;;;;;3.61;47.27;99509.97;6178399;28;96696;-68
2021/12/13 02:36:55;;;;;;;;;75.00;59.25;;;;;3.62;47.38;99501.78;6181345;28;98086;-68
2021/12/13 02:39:59;;;;;;;;;73.20;58.80;;;;;3.62;47.52;99509.78;6183852;28;97099;-66
2021/12/13 02:43:05;;;;;;;;;71.80;58.00;;;;;3.64;47.03;99510.47;6142209;28;98242;-67
2021/12/13 02:46:09;;;;;;;;;75.00;59.40;;;;;3.63;47.12;99508.81;6176368;28;97103;-66
2021/12/13 02:49:16;;;;;;;;;77.00;61.00;;;;;3.62;47.09;99512.47;6161194;28;97601;-66
2021/12/13 02:52:22;;;;;;;;;76.00;59.00;;;;;3.62;46.92;99511.63;6159546;28;97491;-67
2021/12/13 02:55:30;;;;;;;;;75.00;59.40;;;;;3.40;47.25;99481.06;6189067;28;96536;-66
2021/12/13 02:58:36;;;;;;;;;74.75;61.00;;;;;3.58;46.76;99512.94;6188275;28;97447;-66
2021/12/13 03:01:45;;;;;;;;;72.60;58.20;;;;;3.55;46.87;99506.13;6191058;28;96969;-66
2021/12/13 03:04:50;;;;;;;;;75.00;55.40;;;;;3.55;47.12;99506.13;6150185;28;98199;-66
2021/12/13 03:07:57;;;;;;;;;73.75;58.50;;;;;3.53;47.33;99505.44;6173478;28;97443;-67
2021/12/13 03:11:07;;;;;;;;;73.40;57.00;;;;;3.58;46.89;99504.94;6154293;28;96857;-66
2021/12/13 03:14:14;;;;;;;;;74.60;59.00;;;;;3.59;46.60;99517.28;6192107;28;97393;-67
2021/12/13 03:17:22;;;;;;;;;75.00;59.40;;;;;3.51;46.61;99519.94;6171943;28;96808;-67
2021/12/13 03:20:38;;;;;;;;;74.40;56.20;;;;;3.41;46.44;99518.25;6190170;28;97428;-67
2021/12/13 03:23:53;;;;;;;;;73.40;55.00;;;;;3.32;46.00;99515.69;6155654;28;100433;-66
2021/12/13 03:27:14;;;;;;;;;73.00;54.00;;;;;3.22;45.72;99521.16;6155759;28;97162;-67
2021/12/13 03:30:22;;;;;;;;;75.00;56.00;;;;;3.11;45.73;99529.41;6172738;28;97759;-67
2021/12/13 03:33:33;;;;;;;;;71.00;54.20;;;;;2.99;45.53;99531.50;6188783;28;97261;-67
2021/12/13 03:36:49;;;;;;;;;70.50;54.00;;;;;2.87;45.40;99531.94;6140199;28;97733;-66
2021/12/13 03:39:57;;;;;;;;;69.75;53.75;;;;;2.75;45.42;99525.19;6176290;28;97561;-66
2021/12/13 03:43:09;;;;;;;;;70.60;54.00;;;;;2.66;45.23;99523.47;6184213;28;97040;-67
2021/12/13 03:46:15;;;;;;;;;72.60;57.80;;;;;2.61;45.70;99542.56;6173656;28;97447;-67
2021/12/13 03:49:20;;;;;;;;;72.40;55.00;;;;;2.56;45.75;99544.88;6159158;28;99644;-66
2021/12/13 03:52:29;;;;;;;;;71.00;54.40;;;;;2.51;45.76;99534.69;6191203;28;97531;-67
2021/12/13 03:55:35;;;;;;;;;72.80;55.60;;;;;2.49;45.54;99536.66;6163136;28;96657;-66
2021/12/13 03:58:44;;;;;;;;;73.60;55.20;;;;;2.48;45.58;99550.13;6161283;28;96935;-67
2021/12/13 04:01:50;;;;;;;;;72.20;55.80;;;;;2.42;45.96;99535.63;6162604;28;97117;-67
2021/12/13 04:04:57;;;;;;;;;70.00;53.00;;;;;2.39;45.76;99537.75;6163035;28;97095;-66
2021/12/13 04:08:03;;;;;;;;;73.75;56.00;;;;;2.38;45.99;99536.91;6165351;28;97123;-67
2021/12/13 04:11:09;;;;;;;;;73.60;56.00;;;;;2.30;45.77;99533.34;6164067;28;98728;-68
2021/12/13 04:14:24;;;;;;;;;72.75;55.25;;;;;2.39;45.69;99551.91;6182615;28;97609;-67
2021/12/13 04:17:42;;;;;;;;;70.40;54.40;;;;;2.36;45.69;99564.66;6151502;28;99610;-68
2021/12/13 04:20:45;;;;;;;;;70.00;53.80;;;;;2.34;45.84;99553.34;6153379;28;98150;-66
2021/12/13 04:23:52;;;;;;;;;70.40;53.80;;;;;2.33;46.22;99539.19;6176359;28;97072;-66
2021/12/13 04:26:58;;;;;;;;;68.20;52.00;;;;;2.22;46.81;99525.28;6166510;28;97209;-67
2021/12/13 04:30:16;;;;;;;;;68.75;51.75;;;;;2.40;46.70;99550.88;6161367;28;97395;-66
2021/12/13 04:33:23;;;;;;;;;72.00;53.00;;;;;2.31;46.47;99559.78;6149928;28;99743;-67
2021/12/13 04:36:29;;;;;;;;;69.50;53.00;;;;;2.31;46.34;99556.28;6163059;28;96569;-66
2021/12/13 04:39:36;;;;;;;;;68.20;51.40;;;;;2.32;46.08;99557.97;6164021;28;97691;-66
2021/12/13 04:42:41;;;;;;;;;67.80;50.40;;;;;2.36;46.43;99560.16;6163094;28;97338;-67
2021/12/13 04:45:49;;;;;;;;;68.50;51.75;;;;;2.38;46.37;99550.22;6146527;28;98546;-66
2021/12/13 04:48:58;;;;;;;;;70.00;52.00;;;;;2.33;46.18;99538.34;6150168;28;97735;-66
2021/12/13 04:52:07;;;;;;;;;69.50;50.75;;;;;2.41;46.07;99547.25;6163305;28;98560;-67
2021/12/13 04:55:13;;;;;;;;;69.20;52.00;;;;;2.38;46.20;99550.22;6159963;28;96869;-67
2021/12/13 04:58:19;;;;;;;;;70.75;52.00;;;;;2.41;46.53;99557.88;6170288;28;97313;-67
2021/12/13 05:01:26;;;;;;;;;68.00;51.00;;;;;2.45;46.88;99553.91;6181864;28;97953;-67
2021/12/13 05:04:31;;;;;;;;;70.00;52.40;;;;;2.48;46.67;99545.66;6163393;28;98553;-66
2021/12/13 05:07:35;;;;;;;;;71.40;55.00;;;;;2.49;46.47;99541.16;6170735;28;98158;-67
2021/12/13 05:10:42;;;;;;;;;70.00;53.00;;;;;2.48;46.08;99534.16;6144846;28;98404;-66
2021/12/13 05:13:50;;;;;;;;;71.20;53.00;;;;;2.53;45.84;99548.69;6161476;28;97622;-67
2021/12/13 05:16:57;;;;;;;;;72.00;56.20;;;;;2.46;45.93;99550.28;6146350;28;97188;-68
2021/12/13 05:20:10;;;;;;;;;73.00;57.00;;;;;2.41;46.15;99549.91;6153942;28;99635;-66
2021/12/13 05:23:20;;;;;;;;;72.00;55.00;;;;;2.30;45.77;99555.44;6172085;28;98179;-66
2021/12/13 05:26:32;;;;;;;;;70.40;54.40;;;;;2.16;46.09;99558.66;6164384;28;97508;-67
2021/12/13 05:29:40;;;;;;;;;71.00;56.40;;;;;2.06;46.18;99553.41;6179358;28;97168;-67
2021/12/13 05:32:49;;;;;;;;;70.20;53.00;;;;;2.01;45.88;99560.16;6185682;28;98984;-67
2021/12/13 05:35:56;;;;;;;;;70.60;54.00;;;;;2.02;45.82;99553.84;6192792;28;98083;-68
2021/12/13 05:39:09;;;;;;;;;71.00;55.40;;;;;2.06;46.01;99560.53;6178997;28;97359;-67
2021/12/13 05:42:12;;;;;;;;;72.20;57.00;;;;;2.13;46.27;99562.47;6185124;28;97226;-67
2021/12/13 05:45:20;;;;;;;;;73.60;53.20;;;;;2.21;46.36;99564.34;6198771;28;97460;-68
2021/12/13 05:48:37;;;;;;;;;70.00;55.00;;;;;2.11;46.03;99548.47;6187328;28;97785;-68
2021/12/13 05:51:45;;;;;;;;;70.25;54.25;;;;;2.07;46.22;99579.03;6179352;28;97420;-67
2021/12/13 05:54:53;;;;;;;;;70.00;53.00;;;;;1.99;46.21;99588.75;6185538;28;97019;-67
2021/12/13 05:57:56;;;;;;;;;75.00;56.20;;;;;2.06;46.29;99590.63;6186430;28;97460;-67
2021/12/13 06:01:02;;;;;;;;;72.25;53.25;;;;;2.08;46.22;99595.81;6184006;28;96497;-67
2021/12/13 06:04:14;;;;;;;;;68.00;52.00;;;;;2.10;46.11;99599.19;6165224;28;98349;-67
2021/12/13 06:07:22;;;;;;;;;70.00;54.00;;;;;2.12;46.28;99597.19;6183581;28;97092;-65
2021/12/13 06:10:33;;;;;;;;;71.60;54.60;;;;;2.20;46.10;99604.44;6184326;28;97453;-65
2021/12/13 06:14:02;;;;;;;;;69.60;53.00;;;;;2.29;46.18;99603.50;6160744;28;99440;-64
2021/12/13 06:17:10;;;;;;;;;67.40;51.60;;;;;2.36;46.67;99607.22;6171676;28;97228;-65
2021/12/13 06:20:21;;;;;;;;;70.00;52.00;;;;;2.24;46.63;99579.19;6160805;28;97951;-66
2021/12/13 06:23:26;;;;;;;;;68.00;52.60;;;;;2.46;46.12;99603.50;6159640;28;98943;-68
2021/12/13 06:26:31;;;;;;;;;67.80;51.40;;;;;2.48;45.99;99616.66;6185101;28;96952;-67
2021/12/13 06:30:05;;;;;;;;;67.00;52.00;;;;;2.42;45.95;99631.41;6184884;28;98345;-67
2021/12/13 06:33:10;;;;;;;;;67.50;52.50;;;;;2.42;46.13;99631.41;6162715;28;98423;-66
2021/12/13 06:36:23;;;;;;;;;71.40;54.00;;;;;2.36;46.08;99618.72;6151215;28;97356;-66
2021/12/13 06:39:30;;;;;;;;;72.00;54.00;;;;;2.41;46.66;99629.75;6167513;28;97199;-67
2021/12/13 06:42:33;;;;;;;;;71.25;53.00;;;;;2.48;46.71;99636.13;6144130;28;98988;-67
2021/12/13 06:45:37;;;;;;;;;72.40;54.00;;;;;2.48;46.18;99638.81;6168206;28;97523;-68
2021/12/13 06:48:45;;;;;;;;;69.80;53.00;;;;;2.48;46.14;99622.84;6183986;28;97081;-67
2021/12/13 06:51:54;;;;;;;;;74.25;56.75;;;;;2.57;46.31;99635.22;6179591;28;96935;-67
2021/12/13 06:55:01;;;;;;;;;71.00;53.00;;;;;2.70;46.10;99642.81;6179396;28;96730;-67
2021/12/13 06:58:17;;;;;;;;;71.80;52.80;;;;;2.78;45.74;99645.56;6167358;28;97700;-67
2021/12/13 07:01:20;;;;;;;;;73.00;55.50;;;;;2.92;45.74;99654.81;6168270;28;96871;-66
2021/12/13 07:04:26;;;;;;;;;73.00;58.60;;;;;3.05;45.47;99648.09;6163692;28;97219;-67
2021/12/13 07:07:38;;;;;;;;;72.80;57.40;;;;;3.14;45.43;99658.81;6176637;28;97575;-64
2021/12/13 07:10:44;;;;;;;;;72.20;57.00;;;;;3.30;45.31;99658.94;6166370;28;96660;-63
2021/12/13 07:13:52;;;;;;;;;74.20;58.60;;;;;3.51;45.01;99654.06;6148291;28;99519;-65
2021/12/13 07:16:55;;;;;;;;;74.75;60.50;;;;;4.24;44.12;99657.03;6164597;28;96816;-66
2021/12/13 07:20:01;;;;;;;;;74.40;61.40;;;;;5.26;42.35;99653.94;6183789;28;96960;-67
2021/12/13 07:23:06;;;;;;;;;75.40;58.40;;;;;6.27;40.27;99663.84;6186148;28;97514;-67
2021/12/13 07:26:09;;;;;;;;;74.60;58.00;;;;;7.13;38.44;99657.41;6189965;28;97436;-65
2021/12/13 07:29:17;;;;;;;;;73.00;59.00;;;;;7.94;36.89;99664.63;6186092;28;97567;-64
2021/12/13 07:32:25;;;;;;;;;75.25;62.00;;;;;8.72;35.78;99674.69;6167051;28;97549;-67
2021/12/13 07:35:33;;;;;;;;;75.20;60.20;;;;;9.27;34.74;99687.44;6191081;28;98364;-67
2021/12/13 07:38:47;;;;;;;;;75.00;57.40;;;;;9.84;34.05;99679.19;6175107;28;97499;-66
2021/12/13 07:41:54;;;;;;;;;78.00;63.00;;;;;10.40;33.13;99685.31;6185392;28;96908;-66
2021/12/13 07:44:58;;;;;;;;;77.00;63.00;;;;;10.95;32.06;99689.63;6167315;28;98992;-65
2021/12/13 07:48:07;;;;;;;;;79.00;63.60;;;;;11.30;31.24;99695.69;6189975;28;97574;-65
2021/12/13 07:51:18;;;;;;;;;77.00;64.80;;;;;11.77;30.78;99701.97;6185835;28;96434;-68
2021/12/13 07:54:26;;;;;;;;;75.00;61.40;;;;;12.25;29.83;99695.22;6185314;28;97365;-65
2021/12/13 07:57:33;;;;;;;;;78.00;65.00;;;;;12.82;29.27;99702.44;6190270;28;97183;-66
2021/12/13 08:00:40;;;;;;;;;74.00;59.00;;;;;13.35;28.68;99696.72;6169838;28;97927;-66
2021/12/13 08:03:50;;;;;;;;;77.20;63.00;;;;;13.70;28.17;99702.47;6157380;28;97453;-67
2021/12/13 08:06:58;;;;;;;;;79.00;61.00;;;;;13.80;27.58;99694.69;6187341;28;97478;-66
2021/12/13 08:10:08;;;;;;;;;78.00;64.00;;;;;14.21;27.16;99699.47;6168815;28;97960;-67
2021/12/13 08:13:15;;;;;;;;;77.00;64.60;;;;;14.73;26.85;99698.88;6177486;28;97798;-65
2021/12/13 08:16:29;;;;;;;;;77.00;65.00;;;;;15.06;26.79;99711.16;6182885;28;98912;-66
2021/12/13 08:19:34;;;;;;;;;73.33;59.00;;;;;15.57;26.13;99700.59;6177209;28;96738;-67
2021/12/13 08:22:43;;;;;;;;;67.20;52.00;;;;;15.60;26.37;99697.38;6160891;28;98088;-66
2021/12/13 08:25:51;;;;;;;;;69.60;55.00;;;;;15.64;25.61;99692.31;6188356;28;97376;-66
2021/12/13 08:28:56;;;;;;;;;67.33;52.67;;;;;15.47;25.83;99703.03;6188431;28;97524;-66
2021/12/13 08:32:02;;;;;;;;;65.00;51.00;;;;;15.45;26.05;99707.84;6187877;28;97192;-67
2021/12/13 08:35:08;;;;;;;;;65.80;49.40;;;;;15.73;25.98;99709.13;6195344;28;97302;-66
2021/12/13 08:38:11;;;;;;;;;64.25;50.00;;;;;15.64;25.76;99707.81;6168441;28;98357;-65
2021/12/13 08:41:30;;;;;;;;;64.40;51.00;;;;;16.04;25.48;99711.47;6166147;28;97101;-66
2021/12/13 08:44:38;;;;;;;;;61.40;47.00;;;;;16.65;24.56;99716.41;6182505;28;97460;-66
2021/12/13 08:47:46;;;;;;;;;63.00;49.00;;;;;16.94;24.00;99713.69;6181300;28;97293;-67
2021/12/13 08:50:52;;;;;;;;;64.20;48.80;;;;;17.30;23.72;99716.00;6167776;28;99106;-69
2021/12/13 08:54:05;;;;;;;;;64.50;49.50;;;;;17.41;23.95;99717.84;6181105;28;98987;-66
2021/12/13 08:57:27;;;;;;;;;63.00;48.80;;;;;17.71;23.50;99720.28;6163925;28;97864;-67
2021/12/13 09:00:53;;;;;;;;;61.60;47.60;;;;;18.06;22.83;99725.47;6185163;28;97599;-69
2021/12/13 09:03:57;;;;;;;;;61.75;48.00;;;;;18.09;22.84;99720.34;6184109;28;97883;-67
2021/12/13 09:07:03;;;;;;;;;63.00;50.00;;;;;18.25;22.90;99712.38;6168064;28;97114;-69
2021/12/13 09:10:07;;;;;;;;;64.75;51.00;;;;;18.26;22.71;99708.56;6167535;28;96636;-70
2021/12/13 09:13:14;;;;;;;;;64.60;50.00;;;;;18.05;22.85;99708.28;6174832;28;97363;-68
2021/12/13 09:16:21;;;;;;;;;66.50;51.50;;;;;17.76;23.20;99712.19;6183035;28;97396;-67
2021/12/13 09:19:27;;;;;;;;;65.00;50.00;;;;;17.91;23.29;99706.97;6148464;28;98374;-66
2021/12/13 09:22:34;;;;;;;;;65.00;49.00;;;;;18.05;22.71;99708.28;6175207;28;98078;-66
2021/12/13 09:25:41;;;;;;;;;65.40;49.20;;;;;18.01;22.65;99703.56;6188247;28;96661;-64
2021/12/13 09:28:50;;;;;;;;;63.80;50.00;;;;;17.95;23.05;99707.28;6169272;28;98216;-65
2021/12/13 09:31:54;;;;;;;;;63.60;49.60;;;;;17.88;22.93;99706.66;6154233;28;97536;-67
2021/12/13 09:35:36;;;;;;;;;68.80;50.40;;;;;17.77;23.27;99708.41;6190737;28;97112;-68
2021/12/13 09:38:46;;;;;;;;;63.20;48.80;;;;;18.39;23.08;99700.00;6167285;28;96707;-68
2021/12/13 09:41:57;;;;;;;;;63.40;50.00;;;;;18.19;22.64;99687.75;6166075;28;96968;-67
2021/12/13 09:45:08;;;;;;;;;66.20;50.00;;;;;18.40;22.56;99685.28;6180533;28;97267;-68
2021/12/13 09:48:19;;;;;;;;;62.60;48.60;;;;;18.88;21.99;99685.38;6185793;28;97329;-69
2021/12/13 09:51:25;;;;;;;;;62.20;49.00;;;;;19.17;21.69;99688.66;6185693;28;96935;-70
2021/12/13 09:54:34;;;;;;;;;62.00;47.50;;;;;19.12;21.47;99682.31;6162881;28;97452;-67
2021/12/13 09:57:44;;;;;;;;;61.00;47.20;;;;;19.33;21.90;99686.91;6170811;28;98410;-69
2021/12/13 10:00:54;;;;;;;;;58.40;47.40;;;;;19.76;21.60;99675.00;6187941;28;96579;-67
2021/12/13 10:04:05;;;;;;;;;61.00;47.40;;;;;19.86;20.83;99680.53;6166414;28;97192;-65
2021/12/13 10:07:12;;;;;;;;;56.40;45.00;;;;;20.11;20.88;99677.97;6187420;28;96733;-68
2021/12/13 10:10:19;;;;;;;;;56.00;44.40;;;;;20.54;20.92;99682.34;6187105;28;97085;-65
2021/12/13 10:13:26;;;;;;;;;57.40;44.00;;;;;20.70;20.48;99683.22;6166493;28;96823;-67
2021/12/13 10:16:34;;;;;;;;;50.00;40.50;;;;;20.80;19.99;99685.19;6186946;28;97483;-67
2021/12/13 10:19:44;;;;;;;;;52.20;41.00;;;;;20.97;20.07;99686.59;6182796;28;97322;-67
2021/12/13 10:22:50;;;;;;;;;50.60;41.20;;;;;21.10;20.09;99693.50;6174439;28;97518;-65
2021/12/13 10:25:57;;;;;;;;;50.60;39.00;;;;;21.33;19.75;99692.19;6168342;28;97313;-66
2021/12/13 10:29:04;;;;;;;;;53.00;43.00;;;;;21.46;19.52;99688.91;6181298;28;97531;-67
2021/12/13 10:32:14;;;;;;;;;54.75;42.75;;;;;21.64;19.33;99688.38;6181669;28;97731;-68
2021/12/13 10:35:21;;;;;;;;;50.00;42.00;;;;;21.93;19.28;99688.63;6164997;28;99564;-67
2021/12/13 10:38:29;;;;;;;;;53.25;43.00;;;;;22.07;19.12;99677.94;6179128;28;98002;-66
2021/12/13 10:41:36;;;;;;;;;56.00;45.00;;;;;22.22;18.60;99688.88;6185026;28;97642;-65
2021/12/13 10:44:44;;;;;;;;;58.00;45.40;;;;;22.13;18.77;99685.88;6185101;28;97651;-68
2021/12/13 10:47:55;;;;;;;;;58.40;46.00;;;;;22.14;18.73;99679.25;6175421;28;96442;-68
2021/12/13 10:51:06;;;;;;;;;58.00;46.00;;;;;22.19;18.92;99679.25;6173510;28;97476;-68
2021/12/13 10:54:14;;;;;;;;;57.60;45.00;;;;;22.16;18.66;99681.75;6173857;28;100079;-68
2021/12/13 10:57:21;;;;;;;;;56.75;44.50;;;;;22.29;18.98;99681.97;6179297;28;96703;-67
2021/12/13 11:00:27;;;;;;;;;53.60;43.60;;;;;22.37;18.83;99677.84;6182844;28;97414;-68
2021/12/13 11:03:35;;;;;;;;;55.00;43.00;;;;;22.22;18.83;99666.91;6151625;28;98746;-67
2021/12/13 11:06:40;;;;;;;;;54.60;43.00;;;;;22.23;18.96;99657.56;6157151;28;98160;-67
2021/12/13 11:09:46;;;;;;;;;54.80;43.40;;;;;22.13;18.84;99661.16;6182608;28;97529;-69
2021/12/13 11:12:53;;;;;;;;;58.60;45.00;;;;;22.02;18.95;99665.84;6171186;28;98093;-64
2021/12/13 11:16:04;;;;;;;;;54.80;44.00;;;;;22.08;18.98;99660.34;6165744;28;100303;-68
2021/12/13 11:19:12;;;;;;;;;56.75;46.00;;;;;22.17;18.83;99655.94;6184091;28;97859;-65
2021/12/13 11:22:19;;;;;;;;;59.00;46.00;;;;;22.18;18.73;99657.59;6177124;28;97577;-67
2021/12/13 11:25:26;;;;;;;;;60.75;48.00;;;;;22.15;18.79;99655.38;6187356;28;97197;-66
2021/12/13 11:28:31;;;;;;;;;62.00;49.00;;;;;22.06;19.22;99649.63;6188340;28;97506;-68
2021/12/13 11:32:13;;;;;;;;;61.20;47.00;;;;;21.92;19.27;99646.63;6181990;28;97721;-66
2021/12/13 11:36:01;;;;;;;;;58.00;46.00;;;;;21.89;19.21;99649.91;6173820;28;96643;-68
2021/12/13 11:39:30;;;;;;;;;55.50;44.50;;;;;21.91;19.39;99646.88;6167295;28;97131;-66
2021/12/13 11:42:53;;;;;;;;;54.00;41.75;;;;;21.73;19.07;99652.97;6174977;28;97611;-65
2021/12/13 11:46:32;;;;;;;;;48.60;39.00;;;;;21.61;19.22;99645.00;6186113;28;97265;-68
2021/12/13 11:49:59;;;;;;;;;52.40;42.00;;;;;21.67;19.71;99648.56;6185160;28;97375;-64
2021/12/13 11:53:50;;;;;;;;;46.20;38.00;;;;;21.53;19.57;99645.56;6144376;28;97785;-64
2021/12/13 11:57:17;;;;;;;;;51.80;40.00;;;;;21.58;19.75;99632.66;6137568;28;97428;-67
2021/12/13 12:00:43;;;;;;;;;54.40;43.40;;;;;21.41;19.64;99636.75;6155332;28;97211;-65
2021/12/13 12:04:20;;;;;;;;;47.50;37.50;;;;;21.11;20.20;99635.63;6135146;28;98429;-68
2021/12/13 12:07:41;;;;;;;;;48.00;40.00;;;;;20.98;20.27;99640.81;6159191;28;98090;-67
2021/12/13 12:11:03;;;;;;;;;54.00;42.00;;;;;20.86;20.35;99621.91;6160083;28;97756;-64
2021/12/13 12:14:10;;;;;;;;;58.00;44.00;;;;;20.63;20.64;99631.41;6144935;28;98065;-65
2021/12/13 12:17:14;;;;;;;;;52.20;42.00;;;;;20.63;20.83;99622.34;6142226;28;97864;-64
2021/12/13 12:20:23;;;;;;;;;52.00;44.00;;;;;20.56;20.84;99616.31;6161224;28;97461;-64
2021/12/13 12:23:30;;;;;;;;;60.25;45.25;;;;;20.41;21.12;99619.84;6150092;28;97053;-68
2021/12/13 12:26:36;;;;;;;;;57.80;46.00;;;;;20.20;21.44;99615.31;6160362;28;97472;-68
2021/12/13 12:29:44;;;;;;;;;57.00;46.00;;;;;19.96;21.54;99614.94;6157884;28;98017;-65
2021/12/13 12:32:51;;;;;;;;;56.00;44.60;;;;;19.52;21.65;99594.41;6150742;28;97509;-68
2021/12/13 12:35:57;;;;;;;;;56.80;45.40;;;;;19.45;21.99;99613.75;6158230;28;97491;-67
2021/12/13 12:39:44;;;;;;;;;56.20;44.20;;;;;19.04;21.98;99607.94;6156172;28;97052;-68
2021/12/13 12:42:52;;;;;;;;;55.00;43.00;;;;;18.78;22.66;99606.03;6146869;28;97315;-66
2021/12/13 12:45:58;;;;;;;;;53.00;43.00;;;;;18.49;23.12;99619.06;6161204;28;97092;-67
2021/12/13 12:49:02;;;;;;;;;48.80;39.80;;;;;18.23;23.32;99616.28;6160906;28;97422;-68
2021/12/13 12:52:09;;;;;;;;;49.80;40.00;;;;;17.95;23.54;99606.34;6152063;28;97214;-67
2021/12/13 12:55:13;;;;;;;;;52.20;41.00;;;;;17.64;23.98;99610.56;6155124;28;97187;-67
2021/12/13 12:58:24;;;;;;;;;44.00;36.00;;;;;17.32;24.41;99616.56;6161378;28;97837;-68
2021/12/13 13:01:31;;;;;;;;;43.50;36.00;;;;;17.05;24.71;99614.75;6160051;28;98795;-65
2021/12/13 13:04:37;;;;;;;;;40.00;33.00;;;;;16.89;24.84;99617.19;6136615;28;98339;-65
2021/12/13 13:07:41;;;;;;;;;37.40;31.40;;;;;16.74;25.04;99629.69;6159500;28;96791;-64
2021/12/13 13:10:50;;;;;;;;;30.00;28.00;;;;;16.61;25.34;99633.56;6158610;28;99552;-64
2021/12/13 13:13:56;;;;;;;;;25.80;24.40;;;;;16.40;25.39;99629.56;6148723;28;98422;-65
2021/12/13 13:17:03;;;;;;;;;33.00;30.00;;;;;16.30;25.51;99632.06;6157715;28;96676;-64
2021/12/13 13:20:11;;;;;;;;;32.80;30.00;;;;;16.15;25.84;99650.78;6156899;28;97168;-66
2021/12/13 13:23:15;;;;;;;;;34.60;31.20;;;;;16.02;26.00;99646.44;6148346;28;98296;-64
2021/12/13 13:26:21;;;;;;;;;37.25;32.00;;;;;15.97;26.27;99648.22;6158388;28;97256;-66
2021/12/13 13:29:26;;;;;;;;;45.00;36.50;;;;;15.86;26.34;99655.31;6157479;28;97766;-66
2021/12/13 13:32:30;;;;;;;;;47.00;38.00;;;;;15.64;26.82;99656.16;6147511;28;99500;-68
2021/12/13 13:35:33;;;;;;;;;38.00;33.25;;;;;15.43;26.75;99649.38;6154989;28;97726;-67
2021/12/13 13:38:38;;;;;;;;;33.00;30.50;;;;;15.23;26.92;99654.28;6155516;28;97402;-67
2021/12/13 13:41:42;;;;;;;;;38.25;32.00;;;;;14.88;27.36;99674.03;6151927;28;98199;-66
2021/12/13 13:44:52;;;;;;;;;36.00;30.00;;;;;14.61;27.65;99656.47;6153843;28;97587;-65
2021/12/13 13:47:59;;;;;;;;;38.20;32.00;;;;;14.30;27.99;99671.00;6156563;28;97251;-67
2021/12/13 13:51:05;;;;;;;;;38.60;33.00;;;;;14.07;28.43;99666.25;6155743;28;98226;-67
2021/12/13 13:54:08;;;;;;;;;43.80;36.00;;;;;13.80;28.91;99662.97;6148542;28;98149;-67
2021/12/13 13:57:19;;;;;;;;;45.50;38.00;;;;;13.51;29.34;99671.81;6164593;28;96835;-66
2021/12/13 14:00:25;;;;;;;;;52.00;40.00;;;;;13.41;29.63;99668.75;6164625;28;96767;-65
2021/12/13 14:03:37;;;;;;;;;50.25;40.25;;;;;13.14;30.00;99665.44;6169323;28;97502;-64
2021/12/13 14:06:44;;;;;;;;;51.40;39.80;;;;;12.83;30.32;99673.50;6164182;28;97378;-66
2021/12/13 14:09:51;;;;;;;;;45.00;38.00;;;;;12.68;30.64;99676.50;6180431;28;96911;-66
2021/12/13 14:13:03;;;;;;;;;49.00;39.00;;;;;12.44;31.21;99685.38;6169736;28;97367;-67
2021/12/13 14:16:14;;;;;;;;;49.60;38.60;;;;;12.21;31.45;99676.94;6180201;28;97482;-66
2021/12/13 14:19:26;;;;;;;;;50.00;40.25;;;;;11.87;32.18;99678.06;6178461;28;97452;-66
2021/12/13 14:22:32;;;;;;;;;49.00;38.60;;;;;11.74;32.33;99687.00;6171681;28;97398;-64
2021/12/13 14:25:38;;;;;;;;;49.60;40.00;;;;;11.41;32.84;99678.06;6165040;28;96876;-66
2021/12/13 14:28:50;;;;;;;;;49.75;40.25;;;;;11.16;33.20;99675.13;6164374;28;98425;-65
2021/12/13 14:31:54;;;;;;;;;52.00;41.60;;;;;10.87;33.81;99681.72;6175953;28;98005;-66
2021/12/13 14:34:58;;;;;;;;;49.40;39.40;;;;;10.60;34.35;99682.69;6162449;28;98215;-67
2021/12/13 14:38:07;;;;;;;;;50.00;40.00;;;;;10.39;34.56;99687.19;6164885;28;97074;-63